Terminal Aerodrome Forecast
Issued by NWS

Home | Current Version | Previous Version | Text Only | Print | Product List | Glossary On
Versions: 1 2 3 4 5 6 7 8 9 10 11 12 13 14 15 16 17 18 19
000
FTUS43 KPAH 222100 AAA
TAFCGI
TAF AMD
KCGI 222142Z 2222/2318 15010KT 3SM -SHRA BR OVC009
     FM230300 21010KT 5SM -DZ BR OVC005
     FM230800 23007KT P6SM BKN008 OVC080
     FM231400 27005KT P6SM OVC080=

USA.gov is the U.S. government's official web portal to all federal, state and local government web resources and services.